sensor_id;sensor_type;location;lat;lon;timestamp;P1;durP1;ratioP1;P2;durP2;ratioP2
57057;SDS011;55017;52.848;6.748;2023-04-30T00:00:25;121.38;;;116.63;;
57057;SDS011;55017;52.848;6.748;2023-04-30T00:02:50;124.53;;;119.90;;
57057;SDS011;55017;52.848;6.748;2023-04-30T00:05:16;124.53;;;120.18;;
57057;SDS011;55017;52.848;6.748;2023-04-30T00:07:42;122.57;;;118.43;;
57057;SDS011;55017;52.848;6.748;2023-04-30T00:10:10;125.53;;;121.03;;
57057;SDS011;55017;52.848;6.748;2023-04-30T00:12:36;122.53;;;118.15;;
57057;SDS011;55017;52.848;6.748;2023-04-30T00:15:03;123.57;;;118.93;;
57057;SDS011;55017;52.848;6.748;2023-04-30T00:17:29;124.43;;;119.95;;
57057;SDS011;55017;52.848;6.748;2023-04-30T00:19:55;125.50;;;121.13;;
57057;SDS011;55017;52.848;6.748;2023-04-30T00:22:20;122.38;;;117.68;;
57057;SDS011;55017;52.848;6.748;2023-04-30T00:24:46;125.05;;;120.57;;
57057;SDS011;55017;52.848;6.748;2023-04-30T00:27:12;125.00;;;120.45;;
57057;SDS011;55017;52.848;6.748;2023-04-30T00:29:37;125.60;;;120.60;;
57057;SDS011;55017;52.848;6.748;2023-04-30T00:32:03;125.28;;;121.07;;
57057;SDS011;55017;52.848;6.748;2023-04-30T00:34:30;124.82;;;120.25;;
57057;SDS011;55017;52.848;6.748;2023-04-30T00:36:56;130.82;;;126.28;;
57057;SDS011;55017;52.848;6.748;2023-04-30T00:39:21;125.47;;;121.07;;
57057;SDS011;55017;52.848;6.748;2023-04-30T00:41:47;127.55;;;122.75;;
57057;SDS011;55017;52.848;6.748;2023-04-30T00:44:12;125.43;;;120.70;;
57057;SDS011;55017;52.848;6.748;2023-04-30T00:46:38;126.35;;;121.47;;
57057;SDS011;55017;52.848;6.748;2023-04-30T00:49:03;124.53;;;120.18;;
57057;SDS011;55017;52.848;6.748;2023-04-30T00:51:32;123.10;;;118.88;;
57057;SDS011;55017;52.848;6.748;2023-04-30T00:53:59;128.07;;;123.38;;
57057;SDS011;55017;52.848;6.748;2023-04-30T00:56:29;125.63;;;121.10;;
57057;SDS011;55017;52.848;6.748;2023-04-30T00:58:55;127.28;;;122.82;;
57057;SDS011;55017;52.848;6.748;2023-04-30T01:01:25;125.20;;;120.80;;
57057;SDS011;55017;52.848;6.748;2023-04-30T01:03:53;122.22;;;117.82;;
57057;SDS011;55017;52.848;6.748;2023-04-30T01:06:18;129.75;;;125.15;;
57057;SDS011;55017;52.848;6.748;2023-04-30T01:08:44;127.25;;;122.65;;
57057;SDS011;55017;52.848;6.748;2023-04-30T01:14:22;123.25;;;118.65;;
57057;SDS011;55017;52.848;6.748;2023-04-30T01:17:04;123.22;;;118.93;;
57057;SDS011;55017;52.848;6.748;2023-04-30T01:22:08;124.97;;;120.32;;
57057;SDS011;55017;52.848;6.748;2023-04-30T01:27:55;128.20;;;123.55;;
57057;SDS011;55017;52.848;6.748;2023-04-30T01:30:41;128.27;;;123.75;;
57057;SDS011;55017;52.848;6.748;2023-04-30T01:33:13;124.13;;;119.70;;
57057;SDS011;55017;52.848;6.748;2023-04-30T01:35:43;124.87;;;120.40;;
57057;SDS011;55017;52.848;6.748;2023-04-30T01:38:34;127.07;;;122.47;;
57057;SDS011;55017;52.848;6.748;2023-04-30T01:41:36;127.40;;;122.63;;
57057;SDS011;55017;52.848;6.748;2023-04-30T01:49:49;124.03;;;119.63;;
57057;SDS011;55017;52.848;6.748;2023-04-30T01:52:38;127.47;;;122.67;;
57057;SDS011;55017;52.848;6.748;2023-04-30T01:58:02;129.85;;;125.05;;
57057;SDS011;55017;52.848;6.748;2023-04-30T02:00:33;129.68;;;124.97;;
57057;SDS011;55017;52.848;6.748;2023-04-30T02:02:59;129.82;;;125.10;;
57057;SDS011;55017;52.848;6.748;2023-04-30T02:05:25;127.55;;;122.85;;
57057;SDS011;55017;52.848;6.748;2023-04-30T02:07:51;127.88;;;123.45;;
57057;SDS011;55017;52.848;6.748;2023-04-30T02:10:18;130.20;;;125.63;;
57057;SDS011;55017;52.848;6.748;2023-04-30T02:12:45;128.43;;;123.82;;
57057;SDS011;55017;52.848;6.748;2023-04-30T02:15:11;130.07;;;125.47;;
57057;SDS011;55017;52.848;6.748;2023-04-30T02:17:37;130.15;;;125.65;;
57057;SDS011;55017;52.848;6.748;2023-04-30T02:20:02;126.78;;;122.20;;
57057;SDS011;55017;52.848;6.748;2023-04-30T02:22:28;130.15;;;125.57;;
57057;SDS011;55017;52.848;6.748;2023-04-30T02:24:54;129.80;;;125.20;;
57057;SDS011;55017;52.848;6.748;2023-04-30T02:27:22;127.97;;;123.43;;
57057;SDS011;55017;52.848;6.748;2023-04-30T02:29:49;130.88;;;126.18;;
57057;SDS011;55017;52.848;6.748;2023-04-30T02:32:14;127.88;;;123.25;;
57057;SDS011;55017;52.848;6.748;2023-04-30T02:34:40;127.97;;;123.70;;
57057;SDS011;55017;52.848;6.748;2023-04-30T02:37:06;131.95;;;127.32;;
57057;SDS011;55017;52.848;6.748;2023-04-30T02:39:32;126.90;;;122.35;;
57057;SDS011;55017;52.848;6.748;2023-04-30T02:41:58;130.80;;;126.15;;
57057;SDS011;55017;52.848;6.748;2023-04-30T02:44:23;126.68;;;121.93;;
57057;SDS011;55017;52.848;6.748;2023-04-30T02:46:49;131.50;;;126.97;;
57057;SDS011;55017;52.848;6.748;2023-04-30T02:49:15;128.23;;;123.63;;
57057;SDS011;55017;52.848;6.748;2023-04-30T02:51:41;129.88;;;125.35;;
57057;SDS011;55017;52.848;6.748;2023-04-30T02:54:06;129.85;;;125.07;;
57057;SDS011;55017;52.848;6.748;2023-04-30T02:56:32;128.30;;;123.80;;
57057;SDS011;55017;52.848;6.748;2023-04-30T02:58:58;129.93;;;125.53;;
57057;SDS011;55017;52.848;6.748;2023-04-30T03:01:24;140.48;;;135.30;;
57057;SDS011;55017;52.848;6.748;2023-04-30T03:03:50;132.82;;;128.18;;
57057;SDS011;55017;52.848;6.748;2023-04-30T03:06:16;129.88;;;125.38;;
57057;SDS011;55017;52.848;6.748;2023-04-30T03:08:41;129.68;;;125.38;;
57057;SDS011;55017;52.848;6.748;2023-04-30T03:11:07;130.85;;;126.25;;
57057;SDS011;55017;52.848;6.748;2023-04-30T03:13:32;131.07;;;126.47;;
57057;SDS011;55017;52.848;6.748;2023-04-30T03:15:58;132.70;;;128.00;;
57057;SDS011;55017;52.848;6.748;2023-04-30T03:18:25;130.30;;;125.75;;
57057;SDS011;55017;52.848;6.748;2023-04-30T03:20:51;132.98;;;128.05;;
57057;SDS011;55017;52.848;6.748;2023-04-30T03:23:17;129.88;;;125.47;;
57057;SDS011;55017;52.848;6.748;2023-04-30T03:25:42;132.10;;;127.35;;
57057;SDS011;55017;52.848;6.748;2023-04-30T03:28:08;128.68;;;124.07;;
57057;SDS011;55017;52.848;6.748;2023-04-30T03:30:33;129.60;;;125.05;;
57057;SDS011;55017;52.848;6.748;2023-04-30T03:32:59;132.98;;;128.25;;
57057;SDS011;55017;52.848;6.748;2023-04-30T03:35:25;131.43;;;126.72;;
57057;SDS011;55017;52.848;6.748;2023-04-30T03:37:51;132.63;;;127.72;;
57057;SDS011;55017;52.848;6.748;2023-04-30T03:40:16;133.85;;;128.77;;
57057;SDS011;55017;52.848;6.748;2023-04-30T03:42:42;135.82;;;130.77;;
57057;SDS011;55017;52.848;6.748;2023-04-30T03:45:08;134.13;;;129.20;;
57057;SDS011;55017;52.848;6.748;2023-04-30T03:47:34;133.13;;;128.30;;
57057;SDS011;55017;52.848;6.748;2023-04-30T03:50:01;135.07;;;129.60;;
57057;SDS011;55017;52.848;6.748;2023-04-30T03:52:27;135.73;;;130.38;;
57057;SDS011;55017;52.848;6.748;2023-04-30T03:54:53;138.52;;;132.93;;
57057;SDS011;55017;52.848;6.748;2023-04-30T03:57:19;139.57;;;133.60;;
57057;SDS011;55017;52.848;6.748;2023-04-30T03:59:45;142.43;;;136.15;;
57057;SDS011;55017;52.848;6.748;2023-04-30T04:02:11;144.10;;;137.52;;
57057;SDS011;55017;52.848;6.748;2023-04-30T04:04:36;147.10;;;140.63;;
57057;SDS011;55017;52.848;6.748;2023-04-30T04:07:02;136.30;;;130.73;;
57057;SDS011;55017;52.848;6.748;2023-04-30T04:09:28;140.52;;;134.57;;
57057;SDS011;55017;52.848;6.748;2023-04-30T04:11:54;144.20;;;137.80;;
57057;SDS011;55017;52.848;6.748;2023-04-30T04:14:20;145.38;;;139.18;;
57057;SDS011;55017;52.848;6.748;2023-04-30T04:16:45;146.07;;;139.88;;
57057;SDS011;55017;52.848;6.748;2023-04-30T04:19:11;139.98;;;133.93;;
57057;SDS011;55017;52.848;6.748;2023-04-30T04:21:37;142.47;;;136.23;;
57057;SDS011;55017;52.848;6.748;2023-04-30T04:24:03;145.20;;;138.98;;
57057;SDS011;55017;52.848;6.748;2023-04-30T04:26:33;149.25;;;142.32;;
57057;SDS011;55017;52.848;6.748;2023-04-30T04:29:00;144.52;;;138.13;;
57057;SDS011;55017;52.848;6.748;2023-04-30T04:31:26;145.43;;;139.25;;
57057;SDS011;55017;52.848;6.748;2023-04-30T04:33:52;144.52;;;138.52;;
57057;SDS011;55017;52.848;6.748;2023-04-30T04:36:23;142.70;;;136.50;;
57057;SDS011;55017;52.848;6.748;2023-04-30T04:38:50;141.15;;;135.30;;
57057;SDS011;55017;52.848;6.748;2023-04-30T04:41:16;142.38;;;136.50;;
57057;SDS011;55017;52.848;6.748;2023-04-30T04:43:42;142.77;;;136.88;;
57057;SDS011;55017;52.848;6.748;2023-04-30T04:46:08;151.87;;;145.27;;
57057;SDS011;55017;52.848;6.748;2023-04-30T04:48:34;141.50;;;135.73;;
57057;SDS011;55017;52.848;6.748;2023-04-30T04:51:00;143.85;;;138.20;;
57057;SDS011;55017;52.848;6.748;2023-04-30T04:53:25;141.48;;;135.48;;
57057;SDS011;55017;52.848;6.748;2023-04-30T04:55:51;146.75;;;139.38;;
57057;SDS011;55017;52.848;6.748;2023-04-30T04:58:16;158.45;;;150.38;;
57057;SDS011;55017;52.848;6.748;2023-04-30T05:00:42;154.18;;;146.55;;
57057;SDS011;55017;52.848;6.748;2023-04-30T05:03:09;150.77;;;143.02;;
57057;SDS011;55017;52.848;6.748;2023-04-30T05:05:35;150.30;;;143.43;;
57057;SDS011;55017;52.848;6.748;2023-04-30T05:08:00;152.13;;;144.70;;
57057;SDS011;55017;52.848;6.748;2023-04-30T05:10:26;147.90;;;140.83;;
57057;SDS011;55017;52.848;6.748;2023-04-30T05:12:51;145.45;;;138.60;;
57057;SDS011;55017;52.848;6.748;2023-04-30T05:15:17;141.50;;;135.55;;
57057;SDS011;55017;52.848;6.748;2023-04-30T05:17:43;141.20;;;135.45;;
57057;SDS011;55017;52.848;6.748;2023-04-30T05:20:08;138.95;;;133.63;;
57057;SDS011;55017;52.848;6.748;2023-04-30T05:22:35;134.90;;;129.73;;
57057;SDS011;55017;52.848;6.748;2023-04-30T05:25:00;134.52;;;129.32;;
57057;SDS011;55017;52.848;6.748;2023-04-30T05:27:26;134.85;;;129.88;;
57057;SDS011;55017;52.848;6.748;2023-04-30T05:29:51;135.95;;;130.57;;
57057;SDS011;55017;52.848;6.748;2023-04-30T05:32:17;136.40;;;131.02;;
57057;SDS011;55017;52.848;6.748;2023-04-30T05:34:43;137.25;;;131.90;;
57057;SDS011;55017;52.848;6.748;2023-04-30T05:37:08;137.43;;;131.97;;
57057;SDS011;55017;52.848;6.748;2023-04-30T05:39:34;135.02;;;129.68;;
57057;SDS011;55017;52.848;6.748;2023-04-30T05:41:59;134.67;;;129.77;;
57057;SDS011;55017;52.848;6.748;2023-04-30T05:44:26;133.63;;;128.77;;
57057;SDS011;55017;52.848;6.748;2023-04-30T05:46:54;132.67;;;127.73;;
57057;SDS011;55017;52.848;6.748;2023-04-30T05:49:20;136.23;;;131.27;;
57057;SDS011;55017;52.848;6.748;2023-04-30T05:51:45;133.90;;;128.73;;
57057;SDS011;55017;52.848;6.748;2023-04-30T05:54:11;135.77;;;130.70;;
57057;SDS011;55017;52.848;6.748;2023-04-30T05:56:36;133.70;;;128.75;;
57057;SDS011;55017;52.848;6.748;2023-04-30T05:59:02;132.52;;;127.63;;
57057;SDS011;55017;52.848;6.748;2023-04-30T06:01:27;132.15;;;126.55;;
57057;SDS011;55017;52.848;6.748;2023-04-30T06:03:53;132.90;;;127.97;;
57057;SDS011;55017;52.848;6.748;2023-04-30T06:06:19;131.13;;;126.10;;
57057;SDS011;55017;52.848;6.748;2023-04-30T06:08:44;132.70;;;127.82;;
57057;SDS011;55017;52.848;6.748;2023-04-30T06:11:13;134.98;;;130.18;;
57057;SDS011;55017;52.848;6.748;2023-04-30T06:13:39;131.95;;;126.80;;
57057;SDS011;55017;52.848;6.748;2023-04-30T06:16:05;133.15;;;128.20;;
57057;SDS011;55017;52.848;6.748;2023-04-30T06:18:32;132.52;;;127.80;;
57057;SDS011;55017;52.848;6.748;2023-04-30T06:20:57;133.90;;;128.88;;
57057;SDS011;55017;52.848;6.748;2023-04-30T06:23:23;133.82;;;128.45;;
57057;SDS011;55017;52.848;6.748;2023-04-30T06:25:49;129.23;;;124.13;;
57057;SDS011;55017;52.848;6.748;2023-04-30T06:28:14;129.77;;;124.55;;
57057;SDS011;55017;52.848;6.748;2023-04-30T06:30:40;130.30;;;125.00;;
57057;SDS011;55017;52.848;6.748;2023-04-30T06:33:05;127.07;;;122.05;;
57057;SDS011;55017;52.848;6.748;2023-04-30T06:35:31;129.80;;;125.18;;
57057;SDS011;55017;52.848;6.748;2023-04-30T06:37:57;133.15;;;128.27;;
57057;SDS011;55017;52.848;6.748;2023-04-30T06:40:22;132.20;;;127.13;;
57057;SDS011;55017;52.848;6.748;2023-04-30T06:42:48;126.57;;;121.68;;
57057;SDS011;55017;52.848;6.748;2023-04-30T06:45:13;131.13;;;126.40;;
57057;SDS011;55017;52.848;6.748;2023-04-30T06:47:39;133.15;;;127.35;;
57057;SDS011;55017;52.848;6.748;2023-04-30T06:50:06;128.55;;;123.47;;
57057;SDS011;55017;52.848;6.748;2023-04-30T06:52:33;131.27;;;126.53;;
57057;SDS011;55017;52.848;6.748;2023-04-30T06:54:59;132.30;;;127.10;;
57057;SDS011;55017;52.848;6.748;2023-04-30T06:57:25;130.98;;;125.90;;
57057;SDS011;55017;52.848;6.748;2023-04-30T06:59:51;130.35;;;125.55;;
57057;SDS011;55017;52.848;6.748;2023-04-30T07:02:17;133.82;;;128.82;;
57057;SDS011;55017;52.848;6.748;2023-04-30T07:04:42;132.35;;;127.22;;
57057;SDS011;55017;52.848;6.748;2023-04-30T07:07:08;132.43;;;127.13;;
57057;SDS011;55017;52.848;6.748;2023-04-30T07:09:34;131.07;;;126.30;;
57057;SDS011;55017;52.848;6.748;2023-04-30T07:12:00;130.80;;;125.85;;
57057;SDS011;55017;52.848;6.748;2023-04-30T07:14:27;127.53;;;122.75;;
57057;SDS011;55017;52.848;6.748;2023-04-30T07:16:53;128.95;;;123.93;;
57057;SDS011;55017;52.848;6.748;2023-04-30T07:19:19;129.43;;;124.55;;
57057;SDS011;55017;52.848;6.748;2023-04-30T07:21:44;129.68;;;124.85;;
57057;SDS011;55017;52.848;6.748;2023-04-30T07:24:10;128.77;;;124.05;;
57057;SDS011;55017;52.848;6.748;2023-04-30T07:26:36;127.88;;;122.88;;
57057;SDS011;55017;52.848;6.748;2023-04-30T07:29:02;126.45;;;121.57;;
57057;SDS011;55017;52.848;6.748;2023-04-30T07:31:28;122.80;;;118.50;;
57057;SDS011;55017;52.848;6.748;2023-04-30T07:33:53;128.85;;;124.07;;
57057;SDS011;55017;52.848;6.748;2023-04-30T07:36:20;128.15;;;123.15;;
57057;SDS011;55017;52.848;6.748;2023-04-30T07:38:46;128.00;;;123.20;;
57057;SDS011;55017;52.848;6.748;2023-04-30T07:41:12;124.80;;;120.10;;
57057;SDS011;55017;52.848;6.748;2023-04-30T07:43:37;120.85;;;116.55;;
57057;SDS011;55017;52.848;6.748;2023-04-30T07:46:03;127.57;;;122.65;;
57057;SDS011;55017;52.848;6.748;2023-04-30T07:48:29;123.88;;;119.25;;
57057;SDS011;55017;52.848;6.748;2023-04-30T07:50:54;129.65;;;124.63;;
57057;SDS011;55017;52.848;6.748;2023-04-30T07:53:21;123.75;;;119.35;;
57057;SDS011;55017;52.848;6.748;2023-04-30T07:55:47;125.32;;;120.55;;
57057;SDS011;55017;52.848;6.748;2023-04-30T07:58:13;124.95;;;120.32;;
57057;SDS011;55017;52.848;6.748;2023-04-30T08:00:38;125.18;;;120.13;;
57057;SDS011;55017;52.848;6.748;2023-04-30T08:03:04;123.47;;;118.97;;
57057;SDS011;55017;52.848;6.748;2023-04-30T08:05:29;126.38;;;121.85;;
57057;SDS011;55017;52.848;6.748;2023-04-30T08:07:55;123.57;;;118.95;;
57057;SDS011;55017;52.848;6.748;2023-04-30T08:10:21;127.85;;;123.13;;
57057;SDS011;55017;52.848;6.748;2023-04-30T08:12:46;122.78;;;118.30;;
57057;SDS011;55017;52.848;6.748;2023-04-30T08:15:12;124.32;;;119.85;;
57057;SDS011;55017;52.848;6.748;2023-04-30T08:17:38;123.22;;;118.90;;
57057;SDS011;55017;52.848;6.748;2023-04-30T08:20:03;125.43;;;120.77;;
57057;SDS011;55017;52.848;6.748;2023-04-30T08:22:30;124.05;;;119.30;;
57057;SDS011;55017;52.848;6.748;2023-04-30T08:24:55;122.63;;;118.00;;
57057;SDS011;55017;52.848;6.748;2023-04-30T08:27:21;123.38;;;118.78;;
57057;SDS011;55017;52.848;6.748;2023-04-30T08:29:47;123.60;;;118.90;;
57057;SDS011;55017;52.848;6.748;2023-04-30T08:32:13;124.38;;;119.53;;
57057;SDS011;55017;52.848;6.748;2023-04-30T08:34:38;123.85;;;119.40;;
57057;SDS011;55017;52.848;6.748;2023-04-30T08:37:07;119.13;;;114.63;;
57057;SDS011;55017;52.848;6.748;2023-04-30T08:39:33;120.32;;;115.90;;
57057;SDS011;55017;52.848;6.748;2023-04-30T08:42:00;124.60;;;119.93;;
57057;SDS011;55017;52.848;6.748;2023-04-30T08:44:28;121.45;;;117.22;;
57057;SDS011;55017;52.848;6.748;2023-04-30T08:46:55;126.32;;;121.57;;
57057;SDS011;55017;52.848;6.748;2023-04-30T08:49:22;124.20;;;119.75;;
57057;SDS011;55017;52.848;6.748;2023-04-30T08:51:49;123.30;;;118.90;;
57057;SDS011;55017;52.848;6.748;2023-04-30T08:54:15;126.65;;;122.07;;
57057;SDS011;55017;52.848;6.748;2023-04-30T08:56:43;124.93;;;120.63;;
57057;SDS011;55017;52.848;6.748;2023-04-30T08:59:10;126.60;;;122.20;;
57057;SDS011;55017;52.848;6.748;2023-04-30T09:01:37;122.25;;;117.88;;
57057;SDS011;55017;52.848;6.748;2023-04-30T09:04:02;125.95;;;121.40;;
57057;SDS011;55017;52.848;6.748;2023-04-30T09:06:28;125.95;;;121.18;;
57057;SDS011;55017;52.848;6.748;2023-04-30T09:08:55;125.50;;;121.00;;
57057;SDS011;55017;52.848;6.748;2023-04-30T09:11:24;121.93;;;117.30;;
57057;SDS011;55017;52.848;6.748;2023-04-30T09:13:54;128.52;;;123.97;;
57057;SDS011;55017;52.848;6.748;2023-04-30T09:16:21;126.63;;;121.75;;
57057;SDS011;55017;52.848;6.748;2023-04-30T09:18:48;126.68;;;122.00;;
57057;SDS011;55017;52.848;6.748;2023-04-30T09:21:14;120.22;;;115.88;;
57057;SDS011;55017;52.848;6.748;2023-04-30T09:23:55;125.35;;;120.65;;
57057;SDS011;55017;52.848;6.748;2023-04-30T09:28:58;125.97;;;120.70;;
57057;SDS011;55017;52.848;6.748;2023-04-30T09:31:25;124.38;;;119.88;;
57057;SDS011;55017;52.848;6.748;2023-04-30T09:33:51;123.43;;;118.90;;
57057;SDS011;55017;52.848;6.748;2023-04-30T09:36:18;126.22;;;121.50;;
57057;SDS011;55017;52.848;6.748;2023-04-30T09:38:44;125.07;;;120.38;;
57057;SDS011;55017;52.848;6.748;2023-04-30T09:41:23;122.10;;;117.78;;
57057;SDS011;55017;52.848;6.748;2023-04-30T09:43:51;121.88;;;117.72;;
57057;SDS011;55017;52.848;6.748;2023-04-30T09:46:18;124.80;;;120.18;;
57057;SDS011;55017;52.848;6.748;2023-04-30T09:48:45;120.97;;;116.85;;
57057;SDS011;55017;52.848;6.748;2023-04-30T09:51:10;123.20;;;118.72;;
57057;SDS011;55017;52.848;6.748;2023-04-30T09:53:37;121.45;;;117.15;;
57057;SDS011;55017;52.848;6.748;2023-04-30T09:56:05;123.53;;;119.13;;
57057;SDS011;55017;52.848;6.748;2023-04-30T09:58:35;121.72;;;117.32;;
57057;SDS011;55017;52.848;6.748;2023-04-30T10:01:03;123.10;;;118.68;;
57057;SDS011;55017;52.848;6.748;2023-04-30T10:03:31;120.47;;;116.13;;
57057;SDS011;55017;52.848;6.748;2023-04-30T10:05:57;120.75;;;116.40;;
57057;SDS011;55017;52.848;6.748;2023-04-30T10:08:27;123.13;;;118.82;;
57057;SDS011;55017;52.848;6.748;2023-04-30T10:11:01;126.25;;;121.75;;
57057;SDS011;55017;52.848;6.748;2023-04-30T10:13:30;122.15;;;117.85;;
57057;SDS011;55017;52.848;6.748;2023-04-30T10:16:00;122.07;;;117.47;;
57057;SDS011;55017;52.848;6.748;2023-04-30T10:18:33;123.50;;;119.13;;
57057;SDS011;55017;52.848;6.748;2023-04-30T10:21:02;122.90;;;118.45;;
57057;SDS011;55017;52.848;6.748;2023-04-30T10:23:34;121.00;;;116.70;;
57057;SDS011;55017;52.848;6.748;2023-04-30T10:26:01;120.68;;;116.45;;
57057;SDS011;55017;52.848;6.748;2023-04-30T10:28:28;121.88;;;117.57;;
57057;SDS011;55017;52.848;6.748;2023-04-30T10:30:56;119.45;;;115.20;;
57057;SDS011;55017;52.848;6.748;2023-04-30T10:33:31;122.78;;;118.18;;
57057;SDS011;55017;52.848;6.748;2023-04-30T10:36:06;121.93;;;117.72;;
57057;SDS011;55017;52.848;6.748;2023-04-30T10:38:38;123.07;;;118.85;;
57057;SDS011;55017;52.848;6.748;2023-04-30T10:41:05;122.45;;;118.22;;
57057;SDS011;55017;52.848;6.748;2023-04-30T10:43:32;119.18;;;115.07;;
57057;SDS011;55017;52.848;6.748;2023-04-30T10:45:59;116.88;;;112.70;;
57057;SDS011;55017;52.848;6.748;2023-04-30T10:48:26;120.55;;;116.38;;
57057;SDS011;55017;52.848;6.748;2023-04-30T10:50:55;119.22;;;115.10;;
57057;SDS011;55017;52.848;6.748;2023-04-30T10:53:23;120.68;;;116.40;;
57057;SDS011;55017;52.848;6.748;2023-04-30T10:58:38;119.80;;;115.68;;
57057;SDS011;55017;52.848;6.748;2023-04-30T11:03:39;121.57;;;117.47;;
57057;SDS011;55017;52.848;6.748;2023-04-30T11:06:12;122.95;;;118.60;;
57057;SDS011;55017;52.848;6.748;2023-04-30T11:08:42;121.30;;;117.13;;
57057;SDS011;55017;52.848;6.748;2023-04-30T11:11:09;121.20;;;117.20;;
57057;SDS011;55017;52.848;6.748;2023-04-30T11:13:39;123.40;;;119.20;;
57057;SDS011;55017;52.848;6.748;2023-04-30T11:16:29;122.10;;;118.00;;
57057;SDS011;55017;52.848;6.748;2023-04-30T11:18:56;119.22;;;115.22;;
57057;SDS011;55017;52.848;6.748;2023-04-30T11:21:40;120.47;;;116.28;;
57057;SDS011;55017;52.848;6.748;2023-04-30T11:27:18;122.03;;;118.10;;
57057;SDS011;55017;52.848;6.748;2023-04-30T11:29:46;120.20;;;116.20;;
57057;SDS011;55017;52.848;6.748;2023-04-30T11:32:12;122.40;;;118.35;;
57057;SDS011;55017;52.848;6.748;2023-04-30T11:34:37;120.63;;;116.43;;
57057;SDS011;55017;52.848;6.748;2023-04-30T11:37:04;118.43;;;114.25;;
57057;SDS011;55017;52.848;6.748;2023-04-30T11:39:30;122.10;;;118.10;;
57057;SDS011;55017;52.848;6.748;2023-04-30T11:44:26;116.80;;;112.90;;
57057;SDS011;55017;52.848;6.748;2023-04-30T11:46:52;121.80;;;117.68;;
57057;SDS011;55017;52.848;6.748;2023-04-30T11:49:21;119.30;;;115.15;;
57057;SDS011;55017;52.848;6.748;2023-04-30T11:51:48;118.22;;;114.22;;
57057;SDS011;55017;52.848;6.748;2023-04-30T11:54:14;117.95;;;114.05;;
57057;SDS011;55017;52.848;6.748;2023-04-30T11:56:44;116.45;;;112.55;;
57057;SDS011;55017;52.848;6.748;2023-04-30T11:59:14;119.95;;;116.05;;
57057;SDS011;55017;52.848;6.748;2023-04-30T12:01:40;123.22;;;119.15;;
57057;SDS011;55017;52.848;6.748;2023-04-30T12:04:06;123.70;;;119.65;;
57057;SDS011;55017;52.848;6.748;2023-04-30T12:06:36;118.38;;;114.47;;
57057;SDS011;55017;52.848;6.748;2023-04-30T12:09:02;120.28;;;116.18;;
57057;SDS011;55017;52.848;6.748;2023-04-30T12:11:31;124.35;;;119.95;;
57057;SDS011;55017;52.848;6.748;2023-04-30T12:14:02;118.78;;;114.70;;
57057;SDS011;55017;52.848;6.748;2023-04-30T12:16:39;117.88;;;113.97;;
57057;SDS011;55017;52.848;6.748;2023-04-30T12:19:06;123.65;;;119.55;;
57057;SDS011;55017;52.848;6.748;2023-04-30T12:21:33;125.30;;;121.00;;
57057;SDS011;55017;52.848;6.748;2023-04-30T12:23:59;119.38;;;115.38;;
57057;SDS011;55017;52.848;6.748;2023-04-30T12:26:33;119.85;;;115.75;;
57057;SDS011;55017;52.848;6.748;2023-04-30T12:29:01;119.03;;;114.82;;
57057;SDS011;55017;52.848;6.748;2023-04-30T12:31:30;121.57;;;117.55;;
57057;SDS011;55017;52.848;6.748;2023-04-30T12:33:57;119.30;;;115.30;;
57057;SDS011;55017;52.848;6.748;2023-04-30T12:36:31;119.60;;;115.60;;
57057;SDS011;55017;52.848;6.748;2023-04-30T12:39:11;116.35;;;112.35;;
57057;SDS011;55017;52.848;6.748;2023-04-30T12:41:43;120.55;;;116.32;;
57057;SDS011;55017;52.848;6.748;2023-04-30T12:44:14;119.47;;;115.40;;
57057;SDS011;55017;52.848;6.748;2023-04-30T12:46:48;117.97;;;114.07;;
57057;SDS011;55017;52.848;6.748;2023-04-30T12:49:24;115.82;;;111.78;;
57057;SDS011;55017;52.848;6.748;2023-04-30T12:51:51;117.57;;;113.60;;
57057;SDS011;55017;52.848;6.748;2023-04-30T12:54:28;117.00;;;113.13;;
57057;SDS011;55017;52.848;6.748;2023-04-30T12:56:56;119.78;;;115.88;;
57057;SDS011;55017;52.848;6.748;2023-04-30T12:59:27;119.25;;;115.25;;
57057;SDS011;55017;52.848;6.748;2023-04-30T13:01:53;119.68;;;115.88;;
57057;SDS011;55017;52.848;6.748;2023-04-30T13:04:19;118.75;;;114.85;;
57057;SDS011;55017;52.848;6.748;2023-04-30T13:06:45;117.57;;;113.53;;
57057;SDS011;55017;52.848;6.748;2023-04-30T13:09:11;116.53;;;112.70;;
57057;SDS011;55017;52.848;6.748;2023-04-30T13:11:36;118.13;;;114.20;;
57057;SDS011;55017;52.848;6.748;2023-04-30T13:14:02;116.80;;;112.82;;
57057;SDS011;55017;52.848;6.748;2023-04-30T13:16:28;117.88;;;113.88;;
57057;SDS011;55017;52.848;6.748;2023-04-30T13:18:54;115.82;;;111.82;;
57057;SDS011;55017;52.848;6.748;2023-04-30T13:21:20;118.63;;;114.63;;
57057;SDS011;55017;52.848;6.748;2023-04-30T13:23:46;118.28;;;114.32;;
57057;SDS011;55017;52.848;6.748;2023-04-30T13:26:12;116.32;;;112.47;;
57057;SDS011;55017;52.848;6.748;2023-04-30T13:28:38;118.50;;;114.32;;
57057;SDS011;55017;52.848;6.748;2023-04-30T13:31:04;116.45;;;112.45;;
57057;SDS011;55017;52.848;6.748;2023-04-30T13:33:29;115.20;;;111.43;;
57057;SDS011;55017;52.848;6.748;2023-04-30T13:35:55;116.45;;;112.65;;
57057;SDS011;55017;52.848;6.748;2023-04-30T13:38:21;116.25;;;112.65;;
57057;SDS011;55017;52.848;6.748;2023-04-30T13:40:46;117.20;;;113.40;;
57057;SDS011;55017;52.848;6.748;2023-04-30T13:43:12;118.28;;;114.28;;
57057;SDS011;55017;52.848;6.748;2023-04-30T13:45:37;116.93;;;113.13;;
57057;SDS011;55017;52.848;6.748;2023-04-30T13:48:03;116.13;;;112.22;;
57057;SDS011;55017;52.848;6.748;2023-04-30T13:50:29;115.82;;;111.93;;
57057;SDS011;55017;52.848;6.748;2023-04-30T13:52:54;110.63;;;107.05;;
57057;SDS011;55017;52.848;6.748;2023-04-30T13:55:21;109.22;;;105.72;;
57057;SDS011;55017;52.848;6.748;2023-04-30T13:57:46;107.60;;;104.00;;
57057;SDS011;55017;52.848;6.748;2023-04-30T14:00:12;108.97;;;105.32;;
57057;SDS011;55017;52.848;6.748;2023-04-30T14:02:38;105.10;;;101.70;;
57057;SDS011;55017;52.848;6.748;2023-04-30T14:05:04;106.53;;;103.13;;
57057;SDS011;55017;52.848;6.748;2023-04-30T14:07:30;107.13;;;103.72;;
57057;SDS011;55017;52.848;6.748;2023-04-30T14:09:56;102.50;;;99.15;;
57057;SDS011;55017;52.848;6.748;2023-04-30T14:14:48;104.80;;;101.30;;
57057;SDS011;55017;52.848;6.748;2023-04-30T14:24:31;106.20;;;102.80;;
57057;SDS011;55017;52.848;6.748;2023-04-30T14:34:14;105.80;;;102.40;;
57057;SDS011;55017;52.848;6.748;2023-04-30T14:53:44;109.00;;;105.50;;
57057;SDS011;55017;52.848;6.748;2023-04-30T15:01:01;115.30;;;111.50;;
57057;SDS011;55017;52.848;6.748;2023-04-30T15:03:26;112.40;;;108.70;;
57057;SDS011;55017;52.848;6.748;2023-04-30T15:05:52;116.50;;;112.50;;